Time;durP1;ratioP1;P1;durP2;ratioP2;P2;SDS_P1;SDS_P2;PMS_P1;PMS_P2;Temp;Humidity;BMP_temperature;BMP_pressure;BME280_temperature;BME280_humidity;BME280_pressure;Samples;Min_cycle;Max_cycle;Signal;HPM_P1;HPM_P2
2023/07/23 00:01:28;;;;;;;6.30;4.55;;;16.70;99.90;;;;;;5023875;28;20214;-81
2023/07/23 00:03:53;;;;;;;8.52;5.15;;;16.70;99.90;;;;;;5027081;28;20183;-81
2023/07/23 00:06:19;;;;;;;9.13;5.10;;;16.60;99.90;;;;;;5048141;28;20631;-81
2023/07/23 00:08:45;;;;;;;7.32;5.32;;;16.60;99.90;;;;;;5048153;28;20187;-81
2023/07/23 00:11:11;;;;;;;7.72;5.00;;;16.60;99.90;;;;;;5047128;28;20171;-81
2023/07/23 00:13:36;;;;;;;9.02;5.07;;;16.70;99.90;;;;;;5032639;28;20220;-81
2023/07/23 00:16:02;;;;;;;7.50;5.20;;;16.60;99.90;;;;;;5031053;28;20183;-80
2023/07/23 00:18:28;;;;;;;9.48;4.97;;;16.70;99.90;;;;;;5029438;28;20183;-80
2023/07/23 00:20:53;;;;;;;7.05;4.93;;;16.70;99.90;;;;;;5040973;28;20206;-81
2023/07/23 00:23:19;;;;;;;10.63;5.30;;;16.70;99.90;;;;;;5022812;28;20210;-81
2023/07/23 00:25:45;;;;;;;7.95;5.53;;;16.70;99.90;;;;;;5022950;28;20183;-80
2023/07/23 00:28:11;;;;;;;8.48;5.57;;;16.70;99.90;;;;;;5027010;28;20179;-81
2023/07/23 00:30:37;;;;;;;11.25;5.18;;;16.70;99.90;;;;;;5024565;28;20233;-81
2023/07/23 00:33:02;;;;;;;7.53;5.00;;;16.70;99.90;;;;;;5042686;28;20199;-80
2023/07/23 00:35:28;;;;;;;8.05;5.15;;;16.60;99.90;;;;;;5025115;28;20182;-80
2023/07/23 00:37:54;;;;;;;7.93;5.03;;;16.50;99.90;;;;;;5025984;28;20183;-81
2023/07/23 00:40:20;;;;;;;8.55;4.88;;;16.40;99.90;;;;;;5044468;28;20171;-81
2023/07/23 00:42:45;;;;;;;8.43;4.80;;;16.40;99.90;;;;;;5026747;28;20199;-81
2023/07/23 00:45:11;;;;;;;9.82;5.38;;;16.40;99.90;;;;;;5026753;28;20251;-81
2023/07/23 00:47:37;;;;;;;7.57;4.97;;;16.30;99.90;;;;;;5027750;28;20235;-81
2023/07/23 00:50:03;;;;;;;10.43;5.10;;;16.30;99.90;;;;;;5027305;28;20183;-81
2023/07/23 00:52:30;;;;;;;11.18;5.53;;;16.30;99.90;;;;;;5026494;28;20198;-81
2023/07/23 00:54:55;;;;;;;7.57;5.78;;;16.30;99.90;;;;;;5026403;28;20179;-80
2023/07/23 00:57:21;;;;;;;9.40;5.28;;;16.30;99.90;;;;;;5025225;28;20178;-80
2023/07/23 00:59:47;;;;;;;7.90;5.10;;;16.30;99.90;;;;;;5025771;28;20210;-81
2023/07/23 01:02:13;;;;;;;10.48;5.00;;;16.30;99.90;;;;;;5025480;28;20222;-80
2023/07/23 01:04:39;;;;;;;7.82;5.45;;;16.30;99.90;;;;;;5026732;28;20179;-81
2023/07/23 01:07:07;;;;;;;9.20;5.30;;;16.40;99.90;;;;;;5025546;28;20190;-81
2023/07/23 01:09:34;;;;;;;9.00;5.18;;;16.40;99.90;;;;;;5025164;28;20214;-81
2023/07/23 01:12:02;;;;;;;10.10;5.60;;;16.40;99.90;;;;;;5024782;28;20218;-81
2023/07/23 01:14:27;;;;;;;11.45;5.15;;;16.40;99.90;;;;;;5025212;28;20217;-79
2023/07/23 01:16:54;;;;;;;8.35;4.93;;;16.40;99.90;;;;;;5040800;28;20163;-81
2023/07/23 01:19:20;;;;;;;9.95;5.45;;;16.40;99.90;;;;;;5033895;28;20179;-80
2023/07/23 01:21:46;;;;;;;9.18;5.63;;;16.40;99.90;;;;;;5028269;28;20681;-81
2023/07/23 01:24:12;;;;;;;8.38;5.10;;;16.40;99.90;;;;;;5027760;28;20179;-81
2023/07/23 01:26:37;;;;;;;10.77;5.43;;;16.40;99.90;;;;;;5027199;28;20179;-81
2023/07/23 01:29:03;;;;;;;8.15;5.35;;;16.40;99.90;;;;;;5044291;28;20663;-81
2023/07/23 01:31:29;;;;;;;11.60;5.07;;;16.40;99.90;;;;;;5026031;28;20195;-81
2023/07/23 01:33:55;;;;;;;10.55;5.32;;;16.30;99.90;;;;;;5027522;28;20214;-81
2023/07/23 01:36:21;;;;;;;7.93;5.00;;;16.40;99.90;;;;;;5026797;28;20186;-81
2023/07/23 01:38:47;;;;;;;11.50;5.60;;;16.30;99.90;;;;;;5026438;28;20187;-80
2023/07/23 01:41:13;;;;;;;7.05;5.10;;;16.30;99.90;;;;;;5044482;28;20167;-81
2023/07/23 01:43:40;;;;;;;9.07;5.57;;;16.20;99.90;;;;;;5027895;28;20179;-81
2023/07/23 01:46:05;;;;;;;8.45;5.43;;;16.30;99.90;;;;;;5028263;28;20189;-81
2023/07/23 01:48:31;;;;;;;10.43;5.93;;;16.30;99.90;;;;;;5028221;28;20183;-80
2023/07/23 01:50:57;;;;;;;8.57;5.47;;;16.40;99.90;;;;;;5027509;28;20180;-81
2023/07/23 01:53:22;;;;;;;11.88;6.18;;;16.30;99.90;;;;;;5026455;28;20210;-81
2023/07/23 01:55:48;;;;;;;7.10;5.03;;;16.30;99.90;;;;;;5026962;28;20399;-80
2023/07/23 01:58:14;;;;;;;6.75;5.00;;;16.30;99.90;;;;;;5027004;28;20179;-80
2023/07/23 02:00:40;;;;;;;7.07;5.43;;;16.30;99.90;;;;;;5043810;28;20175;-80
2023/07/23 02:03:06;;;;;;;9.43;5.22;;;16.30;99.90;;;;;;5026664;28;20207;-81
2023/07/23 02:05:33;;;;;;;12.52;5.65;;;16.20;99.90;;;;;;5026438;28;20215;-81
2023/07/23 02:07:58;;;;;;;10.10;6.00;;;16.20;99.90;;;;;;5026425;28;20210;-81
2023/07/23 02:10:24;;;;;;;6.95;5.18;;;16.20;99.90;;;;;;5026278;28;20201;-81
2023/07/23 02:12:50;;;;;;;9.00;5.10;;;16.10;99.90;;;;;;5025830;28;20218;-81
2023/07/23 02:15:16;;;;;;;8.77;5.38;;;16.20;99.90;;;;;;5026045;28;20183;-80
2023/07/23 02:17:42;;;;;;;6.95;4.90;;;16.20;99.90;;;;;;5026256;28;20186;-80
2023/07/23 02:20:09;;;;;;;9.43;5.53;;;16.20;99.90;;;;;;5043610;28;20171;-80
2023/07/23 02:22:35;;;;;;;7.78;5.20;;;16.20;99.90;;;;;;5044014;28;20190;-81
2023/07/23 02:25:01;;;;;;;8.30;5.57;;;16.20;99.90;;;;;;5025566;28;20175;-80
2023/07/23 02:27:26;;;;;;;6.95;5.40;;;16.20;99.90;;;;;;5025750;28;20175;-81
2023/07/23 02:29:52;;;;;;;11.18;5.07;;;16.20;99.90;;;;;;5025767;28;20197;-81
2023/07/23 02:32:18;;;;;;;10.88;5.75;;;16.20;99.90;;;;;;5026646;28;20207;-80
2023/07/23 02:34:44;;;;;;;10.50;5.50;;;16.20;99.90;;;;;;5026226;28;20199;-81
2023/07/23 02:37:09;;;;;;;10.05;5.38;;;16.20;99.90;;;;;;5043052;28;20194;-81
2023/07/23 02:39:35;;;;;;;6.32;4.95;;;16.20;99.90;;;;;;5042979;28;20190;-81
2023/07/23 02:42:01;;;;;;;8.77;5.55;;;16.20;99.90;;;;;;5024624;28;20199;-81
2023/07/23 02:44:27;;;;;;;7.63;5.40;;;16.20;99.90;;;;;;5025898;28;20175;-80
2023/07/23 02:46:52;;;;;;;9.65;5.70;;;16.20;99.90;;;;;;5025177;28;20210;-81
2023/07/23 02:49:18;;;;;;;13.15;5.63;;;16.20;99.90;;;;;;5026266;28;20186;-81
2023/07/23 02:51:44;;;;;;;7.72;5.43;;;16.20;99.90;;;;;;5026244;28;20203;-81
2023/07/23 02:54:10;;;;;;;10.07;5.53;;;16.20;99.90;;;;;;5025896;28;20242;-80
2023/07/23 02:56:36;;;;;;;8.88;5.97;;;16.20;99.90;;;;;;5043707;28;20186;-80
2023/07/23 02:59:03;;;;;;;8.35;5.13;;;16.20;99.90;;;;;;5024184;28;20194;-81
2023/07/23 03:01:30;;;;;;;8.60;5.63;;;16.20;99.90;;;;;;5037365;28;20193;-81
2023/07/23 03:03:55;;;;;;;6.80;5.35;;;16.20;99.90;;;;;;5019005;28;20183;-80
2023/07/23 03:06:21;;;;;;;8.07;5.35;;;16.30;99.90;;;;;;5019153;28;20210;-80
2023/07/23 03:08:47;;;;;;;7.72;5.35;;;16.30;99.90;;;;;;5020040;28;20213;-80
2023/07/23 03:11:13;;;;;;;10.15;5.28;;;16.30;99.90;;;;;;5021211;28;20190;-80
2023/07/23 03:13:39;;;;;;;7.97;5.43;;;16.30;99.90;;;;;;5021897;28;20214;-81
2023/07/23 03:16:04;;;;;;;8.82;5.47;;;16.30;99.90;;;;;;5046590;28;20249;-80
2023/07/23 03:18:31;;;;;;;8.05;5.70;;;16.30;99.90;;;;;;5025393;28;20186;-80
2023/07/23 03:20:56;;;;;;;7.75;4.95;;;16.30;99.90;;;;;;5025235;28;20583;-80
2023/07/23 03:23:22;;;;;;;10.40;5.47;;;16.30;99.90;;;;;;5027425;28;20203;-80
2023/07/23 03:25:48;;;;;;;6.93;5.82;;;16.20;99.90;;;;;;5045318;28;20171;-80
2023/07/23 03:28:14;;;;;;;9.40;5.63;;;16.20;99.90;;;;;;5028175;28;20557;-80
2023/07/23 03:30:39;;;;;;;7.47;5.25;;;16.20;99.90;;;;;;5028290;28;20195;-80
2023/07/23 03:33:05;;;;;;;9.95;5.60;;;16.20;99.90;;;;;;5027952;28;20214;-80
2023/07/23 03:35:31;;;;;;;11.30;5.43;;;16.20;99.90;;;;;;5045398;28;20171;-80
2023/07/23 03:37:57;;;;;;;7.72;5.38;;;16.20;99.90;;;;;;5044448;28;20686;-80
2023/07/23 03:40:22;;;;;;;8.68;5.35;;;16.20;99.90;;;;;;5026988;28;20171;-80
2023/07/23 03:42:48;;;;;;;8.18;5.55;;;16.20;99.90;;;;;;5036891;28;20198;-80
2023/07/23 03:45:14;;;;;;;10.10;5.47;;;16.20;99.90;;;;;;5027958;28;20175;-80
2023/07/23 03:47:40;;;;;;;7.70;5.75;;;16.20;99.90;;;;;;5040886;28;20171;-80
2023/07/23 03:50:06;;;;;;;9.40;5.60;;;16.20;99.90;;;;;;5023489;28;20257;-79
2023/07/23 03:52:32;;;;;;;8.73;5.50;;;16.20;99.90;;;;;;5040420;28;20183;-79
2023/07/23 03:54:57;;;;;;;7.72;5.03;;;16.20;99.90;;;;;;5042512;28;20566;-80
2023/07/23 03:57:23;;;;;;;7.03;5.32;;;16.30;99.90;;;;;;5026206;28;20183;-80
2023/07/23 03:59:49;;;;;;;7.50;5.68;;;16.30;99.90;;;;;;5025733;28;20218;-80
2023/07/23 04:02:15;;;;;;;9.77;4.85;;;16.40;99.90;;;;;;5025783;28;20198;-80
2023/07/23 04:04:41;;;;;;;7.28;5.55;;;16.40;99.90;;;;;;5026100;28;20554;-80
2023/07/23 04:07:08;;;;;;;9.82;5.70;;;16.60;99.90;;;;;;5026168;28;20558;-80
2023/07/23 04:09:34;;;;;;;8.43;5.63;;;16.80;99.90;;;;;;5044088;28;20702;-80
2023/07/23 04:12:00;;;;;;;7.28;5.13;;;16.90;99.90;;;;;;5026183;28;20207;-80
2023/07/23 04:14:27;;;;;;;6.65;5.03;;;17.00;99.90;;;;;;5026271;28;20233;-80
2023/07/23 04:16:56;;;;;;;9.48;5.05;;;17.00;65.50;;;;;;5026473;28;20183;-80
2023/07/23 04:19:22;;;;;;;7.18;5.53;;;17.10;21.80;;;;;;5044620;28;20172;-80
2023/07/23 04:21:48;;;;;;;8.27;5.18;;;17.20;60.70;;;;;;5044987;28;20191;-81
2023/07/23 04:24:14;;;;;;;7.82;4.95;;;17.20;18.20;;;;;;5026857;28;20183;-80
2023/07/23 04:26:40;;;;;;;7.93;5.35;;;17.30;1.30;;;;;;5026990;28;20193;-80
2023/07/23 04:29:08;;;;;;;9.50;5.20;;;17.30;3.20;;;;;;5026547;28;20187;-80
2023/07/23 04:31:33;;;;;;;7.82;5.03;;;17.40;1.00;;;;;;5027014;28;20199;-80
2023/07/23 04:34:01;;;;;;;12.05;5.75;;;17.50;1.00;;;;;;5026245;28;20781;-80
2023/07/23 04:36:28;;;;;;;7.72;5.00;;;17.60;1.00;;;;;;5026796;28;20316;-80
2023/07/23 04:38:54;;;;;;;10.05;5.20;;;17.60;1.00;;;;;;5026478;28;20216;-80
2023/07/23 04:41:20;;;;;;;9.38;5.47;;;17.70;1.00;;;;;;5043910;28;20215;-80
2023/07/23 04:43:45;;;;;;;7.50;4.38;;;17.80;1.00;;;;;;5026709;28;20201;-79
2023/07/23 04:46:11;;;;;;;9.80;5.30;;;17.80;1.00;;;;;;5029301;28;20191;-81
2023/07/23 04:48:37;;;;;;;8.80;4.78;;;17.90;1.00;;;;;;5027498;28;20213;-80
2023/07/23 04:51:04;;;;;;;9.32;5.63;;;17.90;1.00;;;;;;5045448;28;20230;-81
2023/07/23 04:53:31;;;;;;;5.80;4.43;;;17.90;1.00;;;;;;5026803;28;20226;-81
2023/07/23 04:55:59;;;;;;;8.68;5.05;;;17.80;1.00;;;;;;5043857;28;20183;-81
2023/07/23 04:58:25;;;;;;;8.60;5.18;;;17.90;1.00;;;;;;5026233;28;20194;-80
2023/07/23 05:00:52;;;;;;;7.55;4.90;;;17.90;1.00;;;;;;5026356;28;20178;-80
2023/07/23 05:03:18;;;;;;;8.73;5.13;;;18.10;1.00;;;;;;5026175;28;20199;-80
2023/07/23 05:05:52;;;;;;;7.25;4.53;;;18.10;1.00;;;;;;5043928;28;20163;-80
2023/07/23 05:08:19;;;;;;;8.35;5.10;;;18.10;1.00;;;;;;5026538;28;20187;-80
2023/07/23 05:10:45;;;;;;;8.50;4.60;;;18.20;1.00;;;;;;5027250;28;20178;-80
2023/07/23 05:13:12;;;;;;;6.35;4.70;;;18.20;1.00;;;;;;5026612;28;20218;-79
2023/07/23 05:15:38;;;;;;;7.03;4.75;;;18.20;1.00;;;;;;5027258;28;20175;-80
2023/07/23 05:18:04;;;;;;;7.88;4.72;;;18.20;1.00;;;;;;5026942;28;20229;-80
2023/07/23 05:20:29;;;;;;;6.60;5.00;;;18.20;1.00;;;;;;5026584;28;20182;-80
2023/07/23 05:22:56;;;;;;;9.13;4.25;;;18.20;1.00;;;;;;5026351;28;20202;-80
2023/07/23 05:25:22;;;;;;;5.95;4.63;;;18.20;1.00;;;;;;5044387;28;20175;-81
2023/07/23 05:27:49;;;;;;;8.43;4.68;;;18.30;1.00;;;;;;5025746;28;20262;-78
2023/07/23 05:30:16;;;;;;;6.30;4.95;;;18.40;1.00;;;;;;5019266;28;20179;-77
2023/07/23 05:32:42;;;;;;;7.55;4.30;;;18.50;99.90;;;;;;5035969;28;20195;-77
2023/07/23 05:35:08;;;;;;;6.70;4.78;;;18.50;1.00;;;;;;5018398;28;20651;-78
2023/07/23 05:37:33;;;;;;;6.95;4.53;;;18.50;1.00;;;;;;5036472;28;20214;-78
2023/07/23 05:39:59;;;;;;;9.35;4.93;;;18.50;99.90;;;;;;5037313;28;20214;-78
2023/07/23 05:42:25;;;;;;;9.43;4.65;;;18.50;99.90;;;;;;5019242;28;20249;-78
2023/07/23 05:44:51;;;;;;;6.25;4.72;;;18.60;99.90;;;;;;5018631;28;20717;-78
2023/07/23 05:47:16;;;;;;;9.88;4.60;;;18.60;99.90;;;;;;5018778;28;20211;-78
2023/07/23 05:49:42;;;;;;;9.05;4.72;;;18.60;99.90;;;;;;5036903;28;20199;-78
2023/07/23 05:52:08;;;;;;;7.78;4.20;;;18.60;99.90;;;;;;5019170;28;20199;-78
2023/07/23 05:54:34;;;;;;;8.32;5.05;;;18.60;99.90;;;;;;5019468;28;20242;-78
2023/07/23 05:57:00;;;;;;;6.07;4.30;;;18.70;99.90;;;;;;5018449;28;20182;-77
2023/07/23 05:59:26;;;;;;;8.27;4.43;;;18.70;99.90;;;;;;5018272;28;20186;-78
2023/07/23 06:01:52;;;;;;;8.07;4.65;;;18.70;99.90;;;;;;5019073;28;20285;-78
2023/07/23 06:04:18;;;;;;;9.00;4.93;;;18.70;99.90;;;;;;5018046;28;20266;-77
2023/07/23 06:06:44;;;;;;;7.10;4.35;;;18.80;99.90;;;;;;5018252;28;20225;-78
2023/07/23 06:09:10;;;;;;;6.80;4.70;;;18.80;99.90;;;;;;5034799;28;20673;-77
2023/07/23 06:11:36;;;;;;;10.10;4.85;;;18.80;1.00;;;;;;5016566;28;20210;-78
2023/07/23 06:14:02;;;;;;;7.15;4.28;;;18.80;99.90;;;;;;5017010;28;20562;-78
2023/07/23 06:16:30;;;;;;;6.68;5.05;;;18.90;99.90;;;;;;5034208;28;20213;-77
2023/07/23 06:18:56;;;;;;;8.35;4.65;;;18.80;99.90;;;;;;5016922;28;20495;-77
2023/07/23 06:21:22;;;;;;;6.25;4.50;;;18.90;99.90;;;;;;5035049;28;20190;-78
2023/07/23 06:23:47;;;;;;;6.22;4.57;;;18.90;1.00;;;;;;5016652;28;20656;-77
2023/07/23 06:26:13;;;;;;;7.95;4.25;;;18.90;1.00;;;;;;5017317;28;20274;-77
2023/07/23 06:28:39;;;;;;;8.15;4.25;;;18.90;1.00;;;;;;5034625;28;20179;-77
2023/07/23 06:31:05;;;;;;;8.02;4.25;;;19.00;99.90;;;;;;5017765;28;20170;-78
2023/07/23 06:33:31;;;;;;;6.93;4.30;;;19.00;99.90;;;;;;5035094;28;20203;-78
2023/07/23 06:35:57;;;;;;;9.05;5.28;;;19.10;99.90;;;;;;5017055;28;20171;-78
2023/07/23 06:38:24;;;;;;;8.32;4.70;;;19.10;99.90;;;;;;5034132;28;20241;-77
2023/07/23 06:40:54;;;;;;;8.02;4.57;;;19.20;1.00;;;;;;5016901;28;20179;-77
2023/07/23 06:43:20;;;;;;;5.80;4.35;;;19.20;99.90;;;;;;5017757;28;20230;-78
2023/07/23 06:45:48;;;;;;;8.30;4.40;;;19.30;99.90;;;;;;5035408;28;20160;-77
2023/07/23 06:48:15;;;;;;;6.82;4.43;;;19.40;1.00;;;;;;5019631;28;20179;-78
2023/07/23 06:50:41;;;;;;;6.68;4.35;;;19.50;1.00;;;;;;5018069;28;20183;-77
2023/07/23 06:53:07;;;;;;;8.95;4.05;;;19.60;1.00;;;;;;5018436;28;20214;-78
2023/07/23 06:55:56;;;;;;;6.10;4.03;;;19.60;1.00;;;;;;5019056;28;20221;-78
2023/07/23 06:58:22;;;;;;;8.18;4.30;;;19.70;1.00;;;;;;5042244;28;20172;-78
2023/07/23 07:00:48;;;;;;;7.40;4.40;;;19.70;1.00;;;;;;5040187;28;20182;-77
2023/07/23 07:03:14;;;;;;;8.48;4.20;;;19.80;99.90;;;;;;5040550;28;20205;-78
2023/07/23 07:05:40;;;;;;;5.40;4.05;;;19.80;1.00;;;;;;5041306;28;20175;-78
2023/07/23 07:08:05;;;;;;;9.73;4.38;;;19.90;1.00;;;;;;5023797;28;20198;-77
2023/07/23 07:10:31;;;;;;;7.60;3.95;;;19.90;99.90;;;;;;5025671;28;20182;-78
2023/07/23 07:12:57;;;;;;;6.05;4.20;;;19.90;99.90;;;;;;5043818;28;20225;-78
2023/07/23 07:15:22;;;;;;;5.38;4.13;;;20.00;99.90;;;;;;5027073;28;20274;-79
2023/07/23 07:17:48;;;;;;;6.15;3.90;;;20.00;1.00;;;;;;5043342;28;20167;-79
2023/07/23 07:20:19;;;;;;;5.95;4.00;;;20.00;99.90;;;;;;5028994;28;20593;-79
2023/07/23 07:22:45;;;;;;;7.63;4.30;;;20.10;94.50;;;;;;5025048;28;20195;-79
2023/07/23 07:25:10;;;;;;;7.38;4.00;;;20.10;99.90;;;;;;5025135;28;20531;-78
2023/07/23 07:27:36;;;;;;;5.43;3.90;;;20.10;1.00;;;;;;5040190;28;20171;-77
2023/07/23 07:30:03;;;;;;;7.32;3.97;;;20.20;99.90;;;;;;5041799;28;20176;-77
2023/07/23 07:32:29;;;;;;;5.90;3.63;;;20.20;1.00;;;;;;5045946;28;20698;-77
2023/07/23 07:34:54;;;;;;;5.28;3.97;;;20.30;1.00;;;;;;5020597;28;20199;-77
2023/07/23 07:37:20;;;;;;;8.75;3.88;;;20.30;99.90;;;;;;5020411;28;20241;-78
2023/07/23 07:39:46;;;;;;;5.22;4.18;;;20.40;1.00;;;;;;5020669;28;20206;-78
2023/07/23 07:42:12;;;;;;;5.55;3.72;;;20.40;1.00;;;;;;5021949;28;20224;-78
2023/07/23 07:44:37;;;;;;;4.85;3.80;;;20.40;1.00;;;;;;5022155;28;20194;-78
2023/07/23 07:47:03;;;;;;;5.10;3.47;;;20.30;1.00;;;;;;5024095;28;20205;-78
2023/07/23 07:49:29;;;;;;;7.32;3.67;;;20.30;99.90;;;;;;5024629;28;20243;-77
2023/07/23 07:51:55;;;;;;;7.60;3.67;;;20.40;99.90;;;;;;5023100;28;20223;-77
2023/07/23 07:54:20;;;;;;;7.82;3.70;;;20.50;1.60;;;;;;5021073;28;20234;-77
2023/07/23 07:56:47;;;;;;;4.40;3.35;;;20.70;1.00;;;;;;5021567;28;20274;-77
2023/07/23 07:59:13;;;;;;;12.00;3.47;;;20.90;1.00;;;;;;5038773;28;20199;-77
2023/07/23 08:01:39;;;;;;;6.25;3.83;;;21.00;1.00;;;;;;5039854;28;20192;-77
2023/07/23 08:04:07;;;;;;;8.20;3.40;;;21.10;1.00;;;;;;5021689;28;20186;-77
2023/07/23 08:06:37;;;;;;;5.75;3.55;;;21.00;1.00;;;;;;5020486;28;20190;-77
2023/07/23 08:09:06;;;;;;;6.97;3.30;;;20.80;99.90;;;;;;5021026;28;20676;-77
2023/07/23 08:11:34;;;;;;;6.20;3.38;;;20.70;1.00;;;;;;5019745;28;20207;-77
2023/07/23 08:14:01;;;;;;;6.22;3.42;;;20.70;66.80;;;;;;5020167;28;20230;-77
2023/07/23 08:16:27;;;;;;;6.28;3.53;;;20.70;61.70;;;;;;5019427;28;20198;-77
2023/07/23 08:18:53;;;;;;;4.97;3.47;;;20.50;1.00;;;;;;5018929;28;20229;-77
2023/07/23 08:21:19;;;;;;;5.45;3.22;;;20.30;99.90;;;;;;5019547;28;20662;-78
2023/07/23 08:23:45;;;;;;;5.00;3.17;;;20.20;48.50;;;;;;5019011;28;20179;-77
2023/07/23 08:26:16;;;;;;;7.05;3.70;;;20.10;19.00;;;;;;5037888;28;20175;-78
2023/07/23 08:28:46;;;;;;;7.43;3.35;;;19.90;38.50;;;;;;5036963;28;20198;-78
2023/07/23 08:31:14;;;;;;;5.10;3.33;;;19.90;30.30;;;;;;5018521;28;20229;-78
2023/07/23 08:33:46;;;;;;;7.93;3.67;;;19.90;92.50;;;;;;5018824;28;20199;-77
2023/07/23 08:36:12;;;;;;;6.97;3.67;;;19.80;96.10;;;;;;5019463;28;20198;-77
2023/07/23 08:38:38;;;;;;;7.82;3.90;;;19.70;90.10;;;;;;5018992;28;20421;-77
2023/07/23 08:41:15;;;;;;;6.30;3.53;;;19.50;22.30;;;;;;5018522;28;20171;-77
2023/07/23 08:44:15;;;;;;;5.10;2.95;;;19.30;63.60;;;;;;5018412;28;20595;-77
2023/07/23 08:46:45;;;;;;;5.90;3.67;;;19.20;81.10;;;;;;5018550;28;20171;-77
2023/07/23 08:49:12;;;;;;;6.13;3.47;;;19.10;70.00;;;;;;5018269;28;20698;-77
2023/07/23 08:51:47;;;;;;;6.70;3.53;;;19.10;62.10;;;;;;5035862;28;20679;-77
2023/07/23 08:54:15;;;;;;;5.35;3.45;;;19.10;5.40;;;;;;5018091;28;20202;-77
2023/07/23 08:56:43;;;;;;;5.53;3.47;;;19.10;8.50;;;;;;5018315;28;20188;-78
2023/07/23 08:59:09;;;;;;;5.03;3.63;;;19.00;3.50;;;;;;5035997;28;20171;-77
2023/07/23 09:01:37;;;;;;;4.68;3.17;;;19.00;1.00;;;;;;5018536;28;20227;-78
2023/07/23 09:04:08;;;;;;;5.03;3.40;;;19.00;4.50;;;;;;5018462;28;20229;-77
2023/07/23 09:06:35;;;;;;;5.43;3.67;;;18.90;1.00;;;;;;5018638;28;20202;-77
2023/07/23 09:09:08;;;;;;;5.20;3.08;;;19.00;1.00;;;;;;5017986;28;20187;-77
2023/07/23 09:11:35;;;;;;;7.43;3.15;;;19.10;40.30;;;;;;5037032;28;20191;-78
2023/07/23 09:14:07;;;;;;;4.25;3.05;;;19.10;64.30;;;;;;5018241;28;20577;-77
2023/07/23 09:16:38;;;;;;;6.15;3.25;;;19.00;29.30;;;;;;5019232;28;20178;-78
2023/07/23 09:19:04;;;;;;;6.57;3.20;;;18.80;67.60;;;;;;5037032;28;20171;-78
2023/07/23 09:21:30;;;;;;;5.53;3.35;;;18.70;38.60;;;;;;5022283;28;20198;-78
2023/07/23 09:24:04;;;;;;;5.70;3.00;;;18.70;86.20;;;;;;5036072;28;20177;-77
2023/07/23 09:26:30;;;;;;;4.55;3.47;;;18.70;51.70;;;;;;5017955;28;20183;-78
2023/07/23 09:28:57;;;;;;;6.38;3.35;;;18.60;44.20;;;;;;5035931;28;20203;-78
2023/07/23 09:31:27;;;;;;;6.60;3.78;;;18.50;40.10;;;;;;5017884;28;20210;-77
2023/07/23 09:33:55;;;;;;;4.53;3.17;;;18.40;33.30;;;;;;5035803;28;20187;-78
2023/07/23 09:36:22;;;;;;;4.70;3.33;;;18.40;42.10;;;;;;5019976;28;20313;-78
2023/07/23 09:38:58;;;;;;;4.35;3.30;;;18.40;49.90;;;;;;5019508;28;20219;-77
2023/07/23 09:41:32;;;;;;;5.10;3.42;;;18.30;96.00;;;;;;5036420;28;20244;-79
2023/07/23 09:44:04;;;;;;;6.72;3.90;;;18.30;1.00;;;;;;5020819;28;20183;-78
2023/07/23 09:46:31;;;;;;;5.55;3.90;;;18.30;63.70;;;;;;5020808;28;20182;-78
2023/07/23 09:48:57;;;;;;;6.10;3.88;;;18.20;99.90;;;;;;5017505;28;20183;-78
2023/07/23 09:51:22;;;;;;;5.07;3.42;;;18.20;99.90;;;;;;5018405;28;20729;-78
2023/07/23 09:53:48;;;;;;;6.93;3.50;;;18.20;99.90;;;;;;5018652;28;20206;-78
2023/07/23 09:56:15;;;;;;;5.05;3.63;;;18.10;99.90;;;;;;5021392;28;20191;-81
2023/07/23 09:58:46;;;;;;;8.00;3.45;;;18.10;99.90;;;;;;5027008;28;20179;-81
2023/07/23 10:01:14;;;;;;;6.75;3.60;;;18.20;99.90;;;;;;5044366;28;20151;-80
2023/07/23 10:03:40;;;;;;;4.40;3.35;;;18.30;99.90;;;;;;5044121;28;20175;-80
2023/07/23 10:06:11;;;;;;;5.25;3.67;;;18.20;99.90;;;;;;5025214;28;20589;-80
2023/07/23 10:08:42;;;;;;;6.38;3.92;;;18.00;99.90;;;;;;5026779;28;20201;-80
2023/07/23 10:11:11;;;;;;;8.10;4.10;;;18.10;99.90;;;;;;5025545;28;20171;-80
2023/07/23 10:13:38;;;;;;;5.70;3.58;;;18.10;99.90;;;;;;5045360;28;20213;-80
2023/07/23 10:16:37;;;;;;;4.55;3.63;;;17.90;99.90;;;;;;5018472;28;20179;-80
2023/07/23 10:19:04;;;;;;;5.20;3.45;;;18.10;99.90;;;;;;5019572;28;20171;-82
2023/07/23 10:21:32;;;;;;;7.38;4.00;;;18.10;99.90;;;;;;5037300;28;20195;-82
2023/07/23 10:23:59;;;;;;;5.68;3.67;;;18.10;99.90;;;;;;5023825;28;20179;-81
2023/07/23 10:26:31;;;;;;;4.32;3.35;;;18.10;99.90;;;;;;5020801;28;20183;-80
2023/07/23 10:29:03;;;;;;;6.75;4.22;;;18.00;99.90;;;;;;5022349;28;20203;-80
2023/07/23 10:31:29;;;;;;;5.32;3.75;;;18.00;99.90;;;;;;5020571;28;20199;-81
2023/07/23 10:33:55;;;;;;;5.32;3.70;;;18.00;99.90;;;;;;5019301;28;20230;-81
2023/07/23 10:36:22;;;;;;;5.22;3.53;;;18.10;99.90;;;;;;5019686;28;20198;-80
2023/07/23 10:39:18;;;;;;;5.53;4.07;;;18.10;99.90;;;;;;5018960;28;20183;-81
2023/07/23 10:41:55;;;;;;;5.13;3.78;;;18.10;99.90;;;;;;5034874;28;20191;-80
2023/07/23 10:44:27;;;;;;;6.47;3.78;;;18.20;99.90;;;;;;5017682;28;20250;-82
2023/07/23 10:46:56;;;;;;;4.35;3.72;;;18.40;99.90;;;;;;5017667;28;20257;-81
2023/07/23 10:49:29;;;;;;;4.93;3.90;;;18.50;99.90;;;;;;5017418;28;20175;-82
2023/07/23 10:52:16;;;;;;;6.55;4.35;;;18.70;99.90;;;;;;5018894;28;20199;-81
2023/07/23 10:54:42;;;;;;;4.85;3.72;;;19.00;99.90;;;;;;5018342;28;20213;-82
2023/07/23 10:57:08;;;;;;;7.72;3.60;;;19.20;99.90;;;;;;5017990;28;20258;-81
2023/07/23 10:59:38;;;;;;;8.32;4.57;;;19.60;99.90;;;;;;5034813;28;20178;-82
2023/07/23 11:02:05;;;;;;;5.85;3.50;;;19.70;99.90;;;;;;5017691;28;20198;-81
2023/07/23 11:04:36;;;;;;;6.40;3.90;;;19.90;99.90;;;;;;5016896;28;20183;-83
2023/07/23 11:07:04;;;;;;;5.65;3.75;;;19.90;99.90;;;;;;5019018;28;20171;-80
2023/07/23 11:09:35;;;;;;;5.90;3.83;;;19.70;99.90;;;;;;5019975;28;20191;-81
2023/07/23 11:12:03;;;;;;;5.15;3.83;;;19.60;99.90;;;;;;5019789;28;20222;-80
2023/07/23 11:14:30;;;;;;;5.60;3.97;;;19.70;99.90;;;;;;5037825;28;20191;-80
2023/07/23 11:17:02;;;;;;;6.63;3.95;;;19.90;99.90;;;;;;5018118;28;20175;-78
2023/07/23 11:19:29;;;;;;;7.45;4.10;;;20.00;99.90;;;;;;5018086;28;20172;-79
2023/07/23 11:22:01;;;;;;;4.50;3.33;;;19.80;99.90;;;;;;5035396;28;20568;-77
2023/07/23 11:24:28;;;;;;;5.72;3.50;;;19.70;99.90;;;;;;5017299;28;20174;-78
2023/07/23 11:26:59;;;;;;;7.40;4.05;;;19.70;99.90;;;;;;5019408;28;20235;-79
2023/07/23 11:29:25;;;;;;;5.22;3.55;;;19.60;99.90;;;;;;5040496;28;20244;-80
2023/07/23 11:31:52;;;;;;;4.07;3.47;;;19.40;99.90;;;;;;5024409;28;20665;-80
2023/07/23 11:34:18;;;;;;;8.20;3.47;;;19.30;99.90;;;;;;5021875;28;20238;-79
2023/07/23 11:36:45;;;;;;;5.00;3.47;;;19.30;99.90;;;;;;5041012;28;20229;-79
2023/07/23 11:39:11;;;;;;;3.97;3.25;;;19.50;99.90;;;;;;5037525;28;20211;-79
2023/07/23 11:41:41;;;;;;;4.82;3.03;;;19.50;99.90;;;;;;5040480;28;20226;-79
2023/07/23 11:44:08;;;;;;;3.35;2.63;;;19.50;99.90;;;;;;5043600;28;20599;-80
2023/07/23 11:46:36;;;;;;;4.07;3.13;;;19.40;99.90;;;;;;5028175;28;20186;-81
2023/07/23 11:49:06;;;;;;;3.50;3.20;;;19.40;99.90;;;;;;5025084;28;20233;-81
2023/07/23 11:51:33;;;;;;;5.22;3.70;;;19.50;99.90;;;;;;5026924;28;20203;-81
2023/07/23 11:54:07;;;;;;;6.35;3.13;;;19.50;99.90;;;;;;5028588;28;20596;-81
2023/07/23 11:56:41;;;;;;;3.33;2.90;;;19.60;99.90;;;;;;5030239;28;20174;-81
2023/07/23 11:59:09;;;;;;;4.10;2.67;;;19.40;99.90;;;;;;5048406;28;20156;-80
2023/07/23 12:01:37;;;;;;;3.33;2.65;;;19.30;99.90;;;;;;5054267;28;20191;-78
2023/07/23 12:04:04;;;;;;;3.47;2.65;;;19.30;99.90;;;;;;5039272;28;20175;-80
2023/07/23 12:06:36;;;;;;;3.90;2.58;;;19.30;99.90;;;;;;5043490;28;20171;-79
2023/07/23 12:09:06;;;;;;;3.10;2.78;;;19.30;99.90;;;;;;5021869;28;20198;-79
2023/07/23 12:11:34;;;;;;;4.03;2.63;;;19.20;99.90;;;;;;5021053;28;20210;-79
2023/07/23 12:14:08;;;;;;;4.00;3.20;;;19.20;99.90;;;;;;5039098;28;20195;-79
2023/07/23 12:16:55;;;;;;;3.78;3.03;;;19.10;99.90;;;;;;5022969;28;20282;-79
2023/07/23 12:19:22;;;;;;;3.47;2.92;;;19.20;99.90;;;;;;5025266;28;20506;-80
2023/07/23 12:21:59;;;;;;;3.67;3.25;;;19.40;99.90;;;;;;5039168;28;20234;-81
2023/07/23 12:24:32;;;;;;;3.42;3.03;;;19.50;99.90;;;;;;5022124;28;20244;-80
2023/07/23 12:27:03;;;;;;;4.50;3.25;;;19.80;99.90;;;;;;5024684;28;20647;-79
2023/07/23 12:29:29;;;;;;;2.90;2.70;;;19.60;99.90;;;;;;5025316;28;20191;-80
2023/07/23 12:32:12;;;;;;;3.75;3.40;;;19.60;99.90;;;;;;5024044;28;20198;-80
2023/07/23 12:34:48;;;;;;;3.50;3.13;;;19.50;99.90;;;;;;5038646;28;20187;-79
2023/07/23 12:37:16;;;;;;;3.63;3.03;;;19.30;99.90;;;;;;5020834;28;20267;-80
2023/07/23 12:39:42;;;;;;;3.65;3.33;;;19.10;99.90;;;;;;5037149;28;20175;-79
2023/07/23 12:42:08;;;;;;;5.22;3.15;;;19.00;99.90;;;;;;5019274;28;20194;-79
2023/07/23 12:44:34;;;;;;;4.32;3.30;;;19.00;99.90;;;;;;5019145;28;20194;-78
2023/07/23 12:47:00;;;;;;;3.85;3.45;;;19.00;99.90;;;;;;5018444;28;20194;-78
2023/07/23 12:49:26;;;;;;;3.35;3.03;;;19.00;99.90;;;;;;5019209;28;20175;-79